Flight Track Log - Related Links

Times and Time Zones

All times are in EDT time to prevent confusion due to time zone crossing. See the AWE560 flight status page for this flight to view local times or setup timezone preferences in your user account.

Time Position Orientation Groundspeed Altitude Reporting Facility
EDT Latitude Longitude Course Direction KTS MPH feet Rate Location/Type
06:10AM 39.7000 -86.3333 252° West 183 211 1,700  Level Indianapolis TRACON
06:10AM 39.6853 -86.3483 218° Southwest 170 196 2,700 2,025 Climbing Indianapolis Center
06:12AM 39.6122 -86.4814 254° West 243 280 7,000 1,890 Climbing Indianapolis Center
06:16AM 39.5800 -86.9469 270° West 349 402 14,200 1,855 Climbing Indianapolis Center
06:17AM 39.5806 -87.0814 270° West 367 422 16,400 1,879 Climbing Indianapolis Center
06:20AM 39.5836 -87.3583 271° West 381 438 19,900 1,705 Climbing Indianapolis Center
06:21AM 39.5834 -87.6443 270° West  Level FlightAware Approximate
06:21AM 39.5858 -87.5000 271° West 389 448 21,600  Level Indianapolis Center
06:22AM 39.5834 -87.7897 270° West  Level FlightAware Approximate
06:22AM 39.5858 -87.6422 270° West 391 450 22,700  Level Indianapolis Center
06:23AM 39.5872 -87.7883 271° West 401 461 24,000 1,129 Climbing Indianapolis Center
06:25AM 39.5886 -88.0947 270° West 409 471 26,200 1,038 Climbing Kansas City Center
06:26AM 39.5875 -88.2467 270° West 414 476 27,200 800 Climbing Kansas City Center
06:28AM 39.5894 -88.5511 271° West 420 483 28,600 746 Climbing Kansas City Center
06:29AM 39.5883 -88.7153 270° West 435 501 29,500 968 Climbing Kansas City Center
06:30AM 39.5658 -88.8672 259° West 433 498 30,600 1,026 Climbing Kansas City Center
06:31AM 39.5128 -89.0064 244° Southwest 433 498 31,500 838 Climbing Kansas City Center
06:33AM 39.4003 -89.2694 241° Southwest 429 494 33,100 746 Climbing Indianapolis Center
06:34AM 39.3406 -89.4008 240° Southwest 426 490 33,800 222 Climbing Kansas City Center
06:37AM 39.1678 -89.7978 238° Southwest 419 482 34,000 25 Climbing Kansas City Center
06:42AM 38.8744 -90.4617 261° West 413 475 34,000  Level Kansas City Center
06:44AM 38.8278 -90.7458 258° West 422 486 34,000  Level Kansas City Center
06:46AM 38.7969 -90.9152 262° West  Level FlightAware Approximate
06:46AM 38.7914 -91.0283 261° West 407 468 34,000  Level Kansas City Center
06:52AM 38.6711 -91.9047 260° West 409 471 34,000  Level Kansas City Center
06:53AM 38.6500 -92.0478 259° West 409 471 34,000  Level Kansas City Center
06:54AM 38.6283 -92.1917 259° West 410 472 34,000  Level Kansas City Center
06:55AM 38.6015 -92.2254 259° West  Level Estimated
06:55AM 38.6078 -92.3344 260° West 411 473 34,000  Level Kansas City Center
06:56AM 38.5820 -92.3640 260° West  Level FlightAware Approximate
06:56AM 38.5861 -92.4756 259° West 410 472 34,000  Level Kansas City Center
07:02AM 38.4578 -93.3283 258° West 408 470 34,000  Level Kansas City Center
07:03AM 38.4350 -93.4697 258° West 409 471 34,000  Level Kansas City Center
07:04AM 38.4125 -93.6117 259° West 409 471 34,000  Level Kansas City Center
07:08AM 38.3219 -94.1794 257° West 407 468 34,000  Level Kansas City Center
07:11AM 38.2539 -94.6033 257° West 407 468 34,000  Level Kansas City Center
07:12AM 38.2325 -94.7458 259° West 407 468 34,000  Level Kansas City Center
07:14AM 38.1875 -95.0272 257° West 407 468 34,000  Level Kansas City Center
07:15AM 38.1642 -95.1700 258° West 409 471 34,000  Level Kansas City Center
07:17AM 38.1186 -95.4517 258° West 409 471 34,000  Level Kansas City Center
07:18AM 38.0956 -95.5925 258° West 409 471 34,000  Level Kansas City Center
07:19AM 38.0675 -95.7611 258° West 408 470 34,000  Level Kansas City Center
07:21AM 38.0203 -96.0403 258° West 406 467 34,000  Level Kansas City Center
07:23AM 37.9756 -96.3033 259° West 402 463 34,000  Level Kansas City Center
07:24AM 37.9506 -96.4394 257° West 400 460 34,000  Level Kansas City Center
07:25AM 37.9278 -96.5756 258° West 398 458 34,000  Level Kansas City Center
07:26AM 37.9042 -96.7114 258° West 398 458 34,000  Level Kansas City Center
07:27AM 37.8786 -96.8511 257° West 396 456 34,000  Level Kansas City Center
07:28AM 37.8506 -97.0100 257° West 396 456 34,000  Level Kansas City Center
07:29AM 37.8261 -97.1458 257° West 396 456 34,000  Level Kansas City Center
07:30AM 37.8011 -97.2819 257° West 396 456 34,000  Level Kansas City Center
07:32AM 37.7486 -97.5647 254° West 397 457 34,000 -33 Level Kansas City Center
07:33AM 37.7222 -97.7011 256° West 397 457 33,900  Descending Kansas City Center
07:35AM 37.6875 -97.8639 255° West  Level FlightAware Approximate
07:35AM 37.6728 -97.9781 255° West 403 464 34,000  Level Kansas City Center
07:36AM 37.6472 -98.1153 257° West 402 463 34,000  Level Kansas City Center
07:37AM 37.6228 -98.2453 257° West 397 457 34,000  Level Kansas City Center
07:38AM 37.5967 -98.3831 257° West 398 458 34,000  Level Kansas City Center
07:45AM 37.4231 -99.2611 255° West 407 468 34,000 -14 Level Albuquerque Center
07:46AM 37.3961 -99.3981 256° West 407 468 33,900  Descending Albuquerque Center
07:47AM 37.3616 -99.4804 256° West  Level FlightAware Approximate
07:47AM 37.3769 -99.5017 257° West 404 465 34,000  Level Kansas City Center
07:48AM 37.3334 -99.6157 255° West  Level FlightAware Approximate
07:48AM 37.3486 -99.6342 255° West 404 465 34,000  Level Kansas City Center
07:49AM 37.3051 -99.7508 255° West  Level FlightAware Approximate
07:49AM 37.3181 -99.7894 256° West 408 470 34,000  Level Kansas City Center
07:50AM 37.2767 -99.8858 255° West  Level FlightAware Approximate
07:52AM 37.2225 -100.2431 255° West 417 480 34,000  Level Albuquerque Center
07:53AM 37.1992 -100.3558 255° West 420 483 34,000  Level Kansas City Center
07:55AM 37.1319 -100.6703 255° West 418 481 34,000  Level Albuquerque Center
07:56AM 37.1031 -100.8064 255° West 418 481 34,000  Level Albuquerque Center
07:57AM 37.0733 -100.9436 255° West 419 482 34,000  Level Kansas City Center
07:58AM 37.0439 -101.0783 255° West 419 482 34,000  Level Kansas City Center
08:00AM 36.9800 -101.3750 255° West 424 488 34,000  Level Albuquerque Center
08:02AM 36.9150 -101.6692 255° West 424 488 34,000  Level Albuquerque Center
08:03AM 36.8842 -101.8036 254° West 424 488 34,000  Level Albuquerque Center
08:04AM 36.8553 -101.9411 255° West 426 490 34,000  Level Albuquerque Center
08:05AM 36.8236 -102.0742 253° West 422 486 34,000  Level Albuquerque Center
08:08AM 36.7225 -102.5183 244° Southwest 422 486 34,000  Level Albuquerque Center
08:09AM 36.6919 -102.6531 254° West 423 487 34,000  Level Albuquerque Center
08:10AM 36.6597 -102.7919 254° West 423 487 34,000  Level Albuquerque Center
08:11AM 36.6300 -102.9197 254° West 422 486 34,000  Level Albuquerque Center
08:12AM 36.5967 -103.0600 254° West 421 484 34,000  Level Albuquerque Center
08:13AM 36.5628 -103.2006 253° West 422 486 34,000  Level Albuquerque Center
08:14AM 36.5297 -103.3433 254° West 422 486 34,000  Level Albuquerque Center
08:15AM 36.4950 -103.4867 253° West 425 489 34,000  Level Albuquerque Center
08:16AM 36.4597 -103.6297 253° West 426 490 34,000  Level Albuquerque Center
08:17AM 36.4256 -103.7742 254° West 428 493 34,000  Level Albuquerque Center
08:18AM 36.3903 -103.9169 253° West 429 494 34,000  Level Albuquerque Center
08:19AM 36.3544 -104.0614 253° West 431 496 34,000  Level Albuquerque Center
08:20AM 36.3189 -104.2028 253° West 431 496 34,000  Level Albuquerque Center
08:21AM 36.2775 -104.3669 253° West 430 495 34,000  Level Albuquerque Center
08:22AM 36.2428 -104.5061 253° West 426 490 34,000  Level Albuquerque Center
08:23AM 36.2078 -104.6464 253° West 426 490 34,000  Level Albuquerque Center
08:24AM 36.1725 -104.7836 252° West 421 484 34,000  Level Albuquerque Center
08:25AM 36.1356 -104.9247 252° West 424 488 34,000  Level Albuquerque Center
08:26AM 36.0992 -105.0675 253° West 429 494 34,000 50 Level Albuquerque Center
08:27AM 36.0622 -105.2094 252° West 429 494 34,100  Climbing Albuquerque Center
08:28AM 36.0261 -105.3497 252° West 429 494 34,000 -98 Descending Albuquerque Center
08:29AM 35.9903 -105.4897 252° West 428 493 33,900  Descending Albuquerque Center
08:30AM 35.9539 -105.6297 252° West 428 493 34,000 50 Climbing Albuquerque Center
08:31AM 35.9189 -105.7619 252° West 415 478 34,000  Level Albuquerque Center
08:32AM 35.8869 -105.8786 251° West 405 466 34,000  Level Albuquerque Center
08:33AM 35.8514 -106.0153 252° West 415 478 34,000  Level Albuquerque Center
08:34AM 35.8153 -106.1511 252° West 416 479 34,000  Level Albuquerque Center
08:35AM 35.7736 -106.3039 251° West 419 482 34,000  Level Albuquerque Center
08:36AM 35.7369 -106.4381 251° West 415 478 34,000  Level Albuquerque Center
08:37AM 35.6989 -106.5836 252° West 425 489 34,000  Level Albuquerque Center
08:38AM 35.6619 -106.7142 251° West 425 489 34,000  Level Albuquerque Center
08:39AM 35.6231 -106.8569 252° West 419 482 34,000  Level Albuquerque Center
08:40AM 35.5872 -106.9903 252° West 418 481 34,000  Level Albuquerque Center
08:41AM 35.5497 -107.1244 251° West 417 480 34,000  Level Albuquerque Center
08:42AM 35.5156 -107.2483 251° West 415 478 34,000  Level Albuquerque Center
08:43AM 35.4747 -107.3983 252° West 414 476 34,000  Level Albuquerque Center
08:44AM 35.4378 -107.5272 251° West 415 478 34,000  Level Albuquerque Center
08:45AM 35.4014 -107.6564 251° West 415 478 34,000  Level Albuquerque Center
08:46AM 35.3569 -107.8083 250° West 419 482 34,000  Level Albuquerque Center
08:47AM 35.3214 -107.9383 252° West 419 482 34,000  Level Albuquerque Center
08:48AM 35.2831 -108.0681 250° West 420 483 34,000  Level Albuquerque Center
08:49AM 35.2411 -108.2178 251° West 420 483 34,000  Level Albuquerque Center
08:50AM 35.2017 -108.3481 250° West 420 483 34,000  Level Albuquerque Center
08:51AM 35.1600 -108.4781 249° West 423 487 34,000  Level Albuquerque Center
08:52AM 35.1125 -108.6264 249° West 423 487 34,000  Level Albuquerque Center
08:53AM 35.0706 -108.7558 248° West 423 487 34,000  Level Albuquerque Center
08:54AM 35.0297 -108.8822 248° West 423 487 34,000  Level Albuquerque Center
08:55AM 34.9808 -109.0294 248° West 422 486 34,000 -397 Level Albuquerque Center
08:56AM 34.9400 -109.1564 249° West 422 486 33,200 -843 Descending Albuquerque Center
08:57AM 34.8986 -109.2828 248° West 422 486 32,300 -590 Descending Albuquerque Center
08:58AM 34.8486 -109.4336 248° West 423 487 32,000 -148 Descending Albuquerque Center
08:59AM 34.8064 -109.5622 248° West 425 489 32,000  Level Albuquerque Center
09:00AM 34.7642 -109.6911 248° West 426 490 32,000  Level Albuquerque Center
09:01AM 34.7128 -109.8403 247° West 426 490 32,000  Level Albuquerque Center
09:02AM 34.6672 -109.9669 246° West 427 491 32,000  Level Albuquerque Center
09:03AM 34.6100 -110.0858 240° Southwest 427 491 32,000  Level Albuquerque Center
09:04AM 34.5394 -110.2269 239° Southwest 437 503 32,000  Level Albuquerque Center
09:05AM 34.4722 -110.3369 233° Southwest 429 494 32,000  Level Albuquerque Center
09:07AM 34.4092 -110.4636 239° Southwest 441 507 32,000 -590 Level Albuquerque Center
09:08AM 34.3403 -110.5858 236° Southwest 441 507 30,800 -1,820 Descending Albuquerque Center
09:09AM 34.2719 -110.7086 236° Southwest 441 507 28,300 -2,479 Descending Albuquerque Center
09:10AM 34.2019 -110.8283 235° Southwest 440 506 25,800 -2,430 Descending Albuquerque Center
09:11AM 34.1375 -110.9447 236° Southwest 427 491 23,400 -2,262 Descending Albuquerque Center
09:12AM 34.0769 -111.0533 236° Southwest 401 461 21,200 -2,115 Descending Albuquerque Center
09:13AM 34.0208 -111.1553 236° Southwest 375 432 19,100 -2,213 Descending Albuquerque Center
09:14AM 33.9614 -111.2614 236° Southwest 343 395 16,700 -1,623 Descending Albuquerque Center
09:15AM 33.9214 -111.3336 236° Southwest 296 341 15,800 -934 Descending Albuquerque Center
09:16AM 33.8681 -111.4300 236° Southwest 290 334 14,800 -1,171 Descending Albuquerque Center
09:17AM 33.8250 -111.5111 237° Southwest 290 334 13,400 -1,366 Descending Albuquerque Center
09:18AM 33.7814 -111.5944 238° Southwest 291 335 12,000 -1,328 Descending Albuquerque Center
09:19AM 33.7383 -111.6761 238° Southwest 290 334 10,700 -1,082 Descending Albuquerque Center
09:20AM 33.6969 -111.7522 237° Southwest 264 304 9,800 -590 Descending Albuquerque Center
09:21AM 33.6581 -111.8242 237° Southwest 264 304 9,500 -344 Descending Albuquerque Center
09:22AM 33.6197 -111.8944 237° Southwest 255 293 9,100 -541 Descending Albuquerque Center
09:23AM 33.5867 -111.9547 237° Southwest 221 254 8,400 -984 Descending Albuquerque Center
09:24AM 33.5550 -112.0156 238° Southwest 217 250 7,100 -641 Descending Albuquerque Center
09:25AM 33.5333 -112.1000 253° West 222 255 7,000 -492 Descending Phoenix TRACON
09:26AM 33.5261 -112.1525 261° West 219 252 6,100 -743 Descending Albuquerque Center
09:27AM 33.4933 -112.1936 226° Southwest 206 237 5,600 -1,220 Descending Albuquerque Center
09:28AM 33.4458 -112.1778 164° South 191 220 3,600 -1,512 Descending Albuquerque Center
09:29AM 33.4406 -112.1158 96° East 190 219 2,500 -934 Descending Albuquerque Center
09:30AM 33.4408 -112.0631 90° East 165 190 1,700 -689 Descending Albuquerque Center
09:31AM 33.4400 -112.0111 91° East 147 169 1,100 -590 Descending Albuquerque Center

Login

Don't have an account? Register now (free) for customized features, flight alerts, and more!